createdAt,value
2023-06-25T00:00:37.164Z,69.32
2023-06-25T00:01:37.002Z,68.96
2023-06-25T00:02:37.013Z,68.76
2023-06-25T00:03:36.977Z,69.86
2023-06-25T00:04:36.952Z,69.16
2023-06-25T00:05:36.911Z,67.25
2023-06-25T00:06:36.953Z,69.26
2023-06-25T00:07:36.898Z,68.36
2023-06-25T00:08:36.900Z,68.55
2023-06-25T00:09:36.874Z,68.66
2023-06-25T00:10:37.359Z,69.06
2023-06-25T00:11:36.891Z,68.55
2023-06-25T00:12:36.894Z,68.36
2023-06-25T00:13:36.845Z,67.76
2023-06-25T00:14:36.839Z,67.36
2023-06-25T00:15:36.805Z,67.09
2023-06-25T00:16:36.812Z,68.79
2023-06-25T00:17:36.808Z,68.16
2023-06-25T00:18:36.824Z,66.49
2023-06-25T00:19:36.783Z,68.19
2023-06-25T00:20:36.991Z,67.89
2023-06-25T00:21:36.742Z,69.29
2023-06-25T00:22:36.760Z,68.69
2023-06-25T00:23:36.718Z,68.49
2023-06-25T00:24:36.764Z,68.09
2023-06-25T00:25:36.709Z,67.99
2023-06-25T00:26:36.700Z,70.29
2023-06-25T00:27:36.675Z,67.89
2023-06-25T00:28:36.689Z,68.99
2023-06-25T00:29:36.659Z,68.29
2023-06-25T00:30:36.888Z,68.39
2023-06-25T00:31:36.704Z,68.59
2023-06-25T00:32:36.669Z,68.29
2023-06-25T00:33:36.626Z,67.99
2023-06-25T00:34:36.627Z,68.99
2023-06-25T00:35:36.587Z,68.59
2023-06-25T00:36:36.614Z,68.69
2023-06-25T00:37:36.569Z,68.29
2023-06-25T00:38:36.567Z,69.79
2023-06-25T00:39:36.561Z,68.89
2023-06-25T00:40:36.897Z,71.00
2023-06-25T00:41:36.557Z,68.79
2023-06-25T00:42:36.548Z,68.89
2023-06-25T00:43:36.510Z,69.89
2023-06-25T00:44:36.493Z,70.29
2023-06-25T00:45:36.502Z,68.99
2023-06-25T00:46:36.479Z,67.89
2023-06-25T00:47:36.501Z,69.59
2023-06-25T00:48:36.474Z,69.59
2023-06-25T00:49:36.462Z,69.19
2023-06-25T00:50:36.697Z,69.49
2023-06-25T00:51:36.433Z,69.29
2023-06-25T00:52:36.401Z,69.79
2023-06-25T00:53:36.407Z,68.49
2023-06-25T00:54:36.420Z,69.09
2023-06-25T00:55:36.708Z,69.39
2023-06-25T00:56:36.372Z,69.82
2023-06-25T00:57:36.375Z,69.93
2023-06-25T00:58:36.338Z,69.73
2023-06-25T00:59:36.342Z,68.73
2023-06-25T01:00:36.464Z,69.73
2023-06-25T01:01:36.331Z,69.62
2023-06-25T01:02:36.463Z,71.12
2023-06-25T01:03:36.384Z,70.43
2023-06-25T01:04:36.274Z,71.53
2023-06-25T01:05:36.517Z,70.23
2023-06-25T01:06:36.319Z,70.73
2023-06-25T01:07:36.253Z,70.03
2023-06-25T01:08:36.232Z,69.82
2023-06-25T01:09:36.251Z,68.73
2023-06-25T01:10:36.206Z,70.03
2023-06-25T01:11:36.225Z,69.32
2023-06-25T01:12:36.209Z,70.73
2023-06-25T01:13:36.190Z,70.23
2023-06-25T01:14:36.165Z,70.03
2023-06-25T01:15:36.405Z,68.62
2023-06-25T01:16:36.155Z,69.42
2023-06-25T01:17:36.168Z,68.92
2023-06-25T01:18:36.704Z,69.16
2023-06-25T01:19:36.130Z,68.85
2023-06-25T01:20:36.122Z,68.96
2023-06-25T01:21:36.103Z,69.06
2023-06-25T01:22:36.086Z,69.46
2023-06-25T01:23:36.097Z,68.85
2023-06-25T01:24:36.098Z,69.66
2023-06-25T01:25:36.271Z,69.35
2023-06-25T01:26:36.067Z,69.06
2023-06-25T01:27:36.061Z,68.76
2023-06-25T01:28:36.028Z,69.56
2023-06-25T01:29:36.034Z,68.85
2023-06-25T06:01:02.238Z,68.29
2023-06-25T06:02:03.149Z,68.89
2023-06-25T06:03:03.197Z,67.79
2023-06-25T06:04:03.237Z,68.29
2023-06-25T06:05:03.092Z,67.96
2023-06-25T06:06:03.123Z,68.05
2023-06-25T06:07:03.140Z,68.15
2023-06-25T06:08:03.106Z,69.06
2023-06-25T06:09:03.131Z,67.35
2023-06-25T06:10:03.082Z,67.76
2023-06-25T06:11:03.044Z,68.55
2023-06-25T06:12:03.067Z,67.76
2023-06-25T06:13:03.038Z,67.76
2023-06-25T06:14:03.026Z,67.65
2023-06-25T06:15:03.026Z,67.05
2023-06-25T06:16:02.994Z,67.05
2023-06-25T06:17:02.988Z,66.45
2023-06-25T06:18:02.998Z,67.05
2023-06-25T06:19:02.970Z,68.05
2023-06-25T06:20:02.957Z,67.15
2023-06-25T06:21:02.950Z,68.15
2023-06-25T06:22:02.944Z,66.95
2023-06-25T06:23:02.908Z,68.22
2023-06-25T06:24:02.906Z,67.62
2023-06-25T06:25:02.924Z,68.73
2023-06-25T06:26:02.881Z,66.42
2023-06-25T06:27:03.575Z,66.92
2023-06-25T06:28:02.922Z,66.92
2023-06-25T06:29:02.843Z,67.02
2023-06-25T06:30:02.852Z,66.92
2023-06-25T06:31:02.875Z,67.02
2023-06-25T06:32:02.829Z,67.12
2023-06-25T06:33:02.873Z,66.72
2023-06-25T06:34:02.821Z,67.22
2023-06-25T06:35:02.794Z,66.62
2023-06-25T06:36:02.806Z,66.92
2023-06-25T06:37:02.769Z,66.69
2023-06-25T06:38:02.773Z,68.09
2023-06-25T06:39:02.741Z,65.69
2023-06-25T06:40:02.821Z,66.09
2023-06-25T06:41:02.717Z,66.69
2023-06-25T06:42:02.722Z,66.19
2023-06-25T06:43:02.709Z,66.78
2023-06-25T06:44:02.734Z,65.69
2023-06-25T06:45:03.490Z,65.28
2023-06-25T06:46:02.687Z,65.39
2023-06-25T06:47:02.666Z,66.39
2023-06-25T06:48:02.748Z,65.89
2023-06-25T06:49:02.621Z,65.75
2023-06-25T06:50:02.638Z,65.66
2023-06-25T06:51:02.620Z,65.05
2023-06-25T06:52:02.829Z,65.36
2023-06-25T06:53:02.686Z,65.45
2023-06-25T06:54:02.627Z,65.86
2023-06-25T06:55:02.581Z,64.95
2023-06-25T06:56:02.636Z,65.16
2023-06-25T06:57:02.570Z,65.25
2023-06-25T06:58:02.566Z,65.86
2023-06-25T06:59:02.558Z,63.65
2023-06-25T07:00:02.549Z,64.55
2023-06-25T07:01:02.515Z,65.83
2023-06-25T07:02:02.648Z,66.13
2023-06-25T07:03:02.548Z,65.62
2023-06-25T07:04:02.525Z,64.62
2023-06-25T07:05:02.484Z,64.32
2023-06-25T07:06:02.518Z,63.92
2023-06-25T07:07:02.517Z,65.42
2023-06-25T07:08:02.441Z,63.72
2023-06-25T07:09:02.422Z,63.32
2023-06-25T07:10:02.424Z,63.72
2023-06-25T07:11:02.860Z,63.92
2023-06-25T07:12:02.455Z,63.59
2023-06-25T07:13:02.490Z,63.59
2023-06-25T07:14:02.379Z,63.39
2023-06-25T07:15:02.384Z,63.69
2023-06-25T07:16:02.363Z,62.99
2023-06-25T07:17:02.384Z,62.59
2023-06-25T07:18:02.434Z,62.29
2023-06-25T07:19:02.318Z,63.09
2023-06-25T07:20:02.364Z,61.09
2023-06-25T07:21:02.319Z,61.09
2023-06-25T07:22:02.290Z,62.49
2023-06-25T07:23:02.422Z,61.69
2023-06-25T07:24:04.897Z,62.39
2023-06-25T07:25:02.248Z,61.29
2023-06-25T07:26:02.308Z,61.07
2023-06-25T07:27:02.228Z,61.36
2023-06-25T07:28:02.252Z,61.07
2023-06-25T07:29:02.230Z,61.76
2023-06-25T07:30:02.209Z,60.77
2023-06-25T07:31:02.243Z,59.36
2023-06-25T07:32:02.229Z,61.36
2023-06-25T07:33:02.205Z,60.06
2023-06-25T07:34:02.205Z,59.64
2023-06-25T07:35:02.159Z,59.74
2023-06-25T07:36:02.158Z,59.14
2023-06-25T07:37:02.128Z,61.24
2023-06-25T07:38:02.119Z,60.14
2023-06-25T07:39:02.098Z,61.04
2023-06-25T07:40:02.145Z,60.74
2023-06-25T07:41:02.090Z,61.73
2023-06-25T07:42:02.103Z,59.14
2023-06-25T07:43:02.115Z,58.61
2023-06-25T07:44:04.746Z,59.61
2023-06-25T07:45:02.055Z,60.80
2023-06-25T07:46:02.089Z,59.81
2023-06-25T07:47:02.022Z,59.91
2023-06-25T07:48:02.133Z,59.41
2023-06-25T07:49:01.996Z,59.01
2023-06-25T07:50:01.996Z,60.00
2023-06-25T07:51:02.004Z,59.01
2023-06-25T07:52:01.992Z,57.81
2023-06-25T07:53:02.058Z,59.21
2023-06-25T07:54:01.991Z,57.61
2023-06-25T07:55:01.967Z,57.81
2023-06-25T07:56:03.812Z,57.41
2023-06-25T07:57:01.940Z,57.21
2023-06-25T07:58:01.903Z,57.41
2023-06-25T07:59:01.907Z,57.39
2023-06-25T08:00:01.898Z,60.08
2023-06-25T08:01:01.890Z,58.58
2023-06-25T08:02:01.909Z,57.58
2023-06-25T08:03:02.021Z,57.58
2023-06-25T08:04:02.045Z,57.09
2023-06-25T08:05:01.935Z,57.09
2023-06-25T08:06:01.819Z,56.59
2023-06-25T08:07:01.882Z,56.79
2023-06-25T08:08:01.859Z,55.96
2023-06-25T08:09:01.804Z,56.66
2023-06-25T08:10:01.824Z,58.95
2023-06-25T08:11:01.754Z,57.46
2023-06-25T08:12:01.773Z,56.16
2023-06-25T08:13:01.750Z,56.26
2023-06-25T08:14:01.825Z,56.36
2023-06-25T08:15:01.718Z,56.26
2023-06-25T08:16:01.722Z,55.56
2023-06-25T08:17:01.690Z,56.26
2023-06-25T08:18:01.720Z,55.76
2023-06-25T08:19:01.675Z,58.53
2023-06-25T08:20:01.719Z,55.83
2023-06-25T08:21:01.658Z,54.94
2023-06-25T08:22:01.714Z,55.04
2023-06-25T08:23:01.694Z,56.03
2023-06-25T08:24:01.680Z,55.73
2023-06-25T08:25:01.642Z,57.93
2023-06-25T08:26:01.641Z,57.03
2023-06-25T08:27:01.626Z,55.93
2023-06-25T08:28:01.655Z,54.44
2023-06-25T08:29:01.587Z,54.24
2023-06-25T08:30:01.616Z,54.74
2023-06-25T08:31:01.605Z,53.14
2023-06-25T08:32:01.556Z,52.55
2023-06-25T08:33:01.589Z,52.62
2023-06-25T08:34:01.587Z,53.91
2023-06-25T08:35:01.520Z,53.22
2023-06-25T08:36:01.541Z,52.02
2023-06-25T08:37:01.505Z,51.82
2023-06-25T08:38:01.499Z,54.11
2023-06-25T08:39:01.483Z,52.62
2023-06-25T08:40:01.566Z,52.92
2023-06-25T08:41:01.457Z,53.41
2023-06-25T08:42:01.489Z,53.99
2023-06-25T08:43:01.511Z,53.78
2023-06-25T08:44:01.405Z,53.69
2023-06-25T08:45:01.412Z,52.89
2023-06-25T08:46:01.386Z,55.28
2023-06-25T08:47:01.425Z,53.19
2023-06-25T08:48:01.461Z,54.68
2023-06-25T08:49:01.378Z,54.19
2023-06-25T08:50:01.369Z,52.00
2023-06-25T08:51:01.349Z,52.79
2023-06-25T08:52:01.323Z,53.66
2023-06-25T08:53:01.366Z,54.36
2023-06-25T08:54:01.298Z,52.76
2023-06-25T08:55:01.354Z,51.17
2023-06-25T08:56:01.308Z,50.08
2023-06-25T08:57:01.296Z,50.57
2023-06-25T08:58:01.282Z,48.79
2023-06-25T08:59:01.262Z,50.98
2023-06-25T09:00:01.253Z,49.58
2023-06-25T09:01:01.431Z,50.55
2023-06-25T09:02:01.333Z,50.85
2023-06-25T09:03:01.580Z,51.35
2023-06-25T09:04:01.234Z,50.95
2023-06-25T09:05:01.220Z,51.75
2023-06-25T09:06:01.196Z,50.85
2023-06-25T09:07:04.636Z,49.46
2023-06-25T09:08:01.269Z,49.16
2023-06-25T09:09:01.181Z,51.15
2023-06-25T09:10:01.126Z,48.96
2023-06-25T09:11:01.181Z,48.86
2023-06-25T09:12:01.125Z,49.33
2023-06-25T09:13:01.161Z,53.02
2023-06-25T09:14:01.123Z,48.44
2023-06-25T09:15:01.154Z,50.82
2023-06-25T09:16:01.065Z,50.52
2023-06-25T09:17:01.067Z,49.53
2023-06-25T09:18:01.104Z,48.83
2023-06-25T09:19:01.068Z,48.34
2023-06-25T09:20:01.052Z,48.94
2023-06-25T09:21:01.024Z,48.32
2023-06-25T09:22:01.019Z,50.70
2023-06-25T09:23:01.013Z,50.40
2023-06-25T09:24:00.975Z,50.01
2023-06-25T09:25:01.025Z,48.91
2023-06-25T09:26:01.105Z,50.31
2023-06-25T09:27:01.048Z,49.80
2023-06-25T09:28:01.035Z,48.69
2023-06-25T09:29:01.248Z,47.99
2023-06-25T09:30:00.927Z,49.58
2023-06-25T09:31:01.013Z,49.29
2023-06-25T09:32:00.952Z,48.27
2023-06-25T09:33:01.077Z,46.98
2023-06-25T09:34:00.892Z,46.78
2023-06-25T09:35:00.900Z,47.38
2023-06-25T09:36:03.017Z,47.08
2023-06-25T09:37:00.920Z,49.07
2023-06-25T09:38:00.847Z,47.28
2023-06-25T09:39:00.865Z,50.65
2023-06-25T09:40:00.813Z,47.77
2023-06-25T09:41:00.884Z,49.56
2023-06-25T09:42:00.787Z,48.27
2023-06-25T09:43:00.805Z,47.97
2023-06-25T09:44:00.880Z,47.08
2023-06-25T09:45:00.826Z,47.47
2023-06-25T09:46:00.793Z,45.96
2023-06-25T09:47:00.763Z,46.46
2023-06-25T09:48:00.757Z,48.14
2023-06-25T09:49:00.761Z,49.63
2023-06-25T09:50:01.173Z,49.34
2023-06-25T09:51:00.762Z,47.65
2023-06-25T09:52:00.710Z,47.85
2023-06-25T09:53:00.744Z,47.05
2023-06-25T09:54:00.750Z,47.45
2023-06-25T09:55:00.811Z,47.65
2023-06-25T09:56:00.641Z,47.16
2023-06-25T09:57:00.643Z,47.55
2023-06-25T09:58:00.635Z,47.55
2023-06-25T09:59:00.679Z,47.45
2023-06-25T10:00:00.730Z,46.36
2023-06-25T10:01:00.598Z,47.85
2023-06-25T10:02:00.732Z,45.47
2023-06-25T10:03:00.759Z,45.96
2023-06-25T10:04:00.656Z,46.86
2023-06-25T10:05:00.591Z,45.17
2023-06-25T10:06:00.561Z,47.85
2023-06-25T10:07:00.572Z,45.25
2023-06-25T10:08:00.535Z,44.65
2023-06-25T10:09:00.553Z,46.14
2023-06-25T10:10:00.530Z,46.53
2023-06-25T10:11:00.566Z,45.94
2023-06-25T10:12:00.510Z,47.33
2023-06-25T10:13:00.478Z,46.53
2023-06-25T10:14:00.458Z,47.92
2023-06-25T10:15:00.531Z,45.74
2023-06-25T10:16:00.469Z,45.25
2023-06-25T10:17:00.529Z,46.91
2023-06-25T10:18:00.528Z,45.23
2023-06-25T10:19:00.466Z,44.33
2023-06-25T10:20:00.410Z,46.81
2023-06-25T10:21:00.444Z,46.71
2023-06-25T10:22:01.172Z,46.22
2023-06-25T10:23:00.423Z,45.42
2023-06-25T10:24:00.378Z,46.42
2023-06-25T10:25:00.368Z,47.61
2023-06-25T10:26:00.369Z,47.78
2023-06-25T10:27:00.373Z,45.50
2023-06-25T10:28:00.315Z,44.41
2023-06-25T10:29:00.325Z,43.71
2023-06-25T10:30:00.378Z,44.41
2023-06-25T10:31:00.346Z,44.90
2023-06-25T10:32:00.288Z,45.30
2023-06-25T10:33:00.334Z,44.98
2023-06-25T10:34:00.256Z,43.79
2023-06-25T10:35:00.262Z,44.68
2023-06-25T10:36:00.222Z,44.39
2023-06-25T10:37:00.231Z,47.46
2023-06-25T10:38:00.264Z,45.28
2023-06-25T10:39:00.221Z,45.28
2023-06-25T10:40:00.176Z,45.38
2023-06-25T10:41:00.209Z,45.36
2023-06-25T10:42:00.202Z,44.86
2023-06-25T10:43:00.227Z,44.07
2023-06-25T10:44:00.286Z,46.84
2023-06-25T10:45:00.170Z,45.06
2023-06-25T10:46:00.167Z,47.24
2023-06-25T10:47:00.226Z,43.38
2023-06-25T10:48:00.115Z,43.16
2023-06-25T10:49:00.106Z,44.74
2023-06-25T10:50:00.160Z,45.93
2023-06-25T10:51:00.117Z,44.24
2023-06-25T10:52:00.068Z,43.85
2023-06-25T10:53:00.067Z,44.15
2023-06-25T10:54:00.070Z,42.35
2023-06-25T10:55:00.047Z,44.42
2023-06-25T10:56:00.014Z,42.35
2023-06-25T10:57:00.061Z,44.82
2023-06-25T10:58:00.013Z,42.94
2023-06-25T10:59:00.005Z,42.03
2023-06-25T10:59:59.974Z,41.44
2023-06-25T11:01:00.045Z,43.80
2023-06-25T11:01:59.996Z,41.83
2023-06-25T11:03:00.004Z,42.52
2023-06-25T11:04:00.021Z,41.53
2023-06-25T11:05:00.236Z,45.39
2023-06-25T11:05:59.927Z,41.33
2023-06-25T11:07:00.056Z,44.60
2023-06-25T11:07:59.893Z,42.13
2023-06-25T11:08:59.895Z,42.50
2023-06-25T11:09:59.861Z,42.11
2023-06-25T11:10:59.869Z,42.30
2023-06-25T11:11:59.859Z,41.61
2023-06-25T11:12:59.907Z,42.01
2023-06-25T11:13:59.824Z,43.17
2023-06-25T11:15:00.395Z,42.29
2023-06-25T11:15:59.800Z,40.70
2023-06-25T11:16:59.854Z,42.19
2023-06-25T11:17:59.831Z,40.80
2023-06-25T11:18:59.782Z,39.79
2023-06-25T11:19:59.765Z,40.98
2023-06-25T11:20:59.789Z,40.27
2023-06-25T11:21:59.762Z,39.78
2023-06-25T11:22:59.741Z,39.18
2023-06-25T11:23:59.767Z,39.68
2023-06-25T11:24:59.775Z,40.86
2023-06-25T11:26:01.260Z,40.17
2023-06-25T11:26:59.709Z,39.87
2023-06-25T11:27:59.688Z,40.56
2023-06-25T11:28:59.706Z,39.78
2023-06-25T11:29:59.704Z,41.95
2023-06-25T11:30:59.704Z,41.85
2023-06-25T11:31:59.675Z,40.47
2023-06-25T11:32:59.654Z,38.29
2023-06-25T11:33:59.621Z,38.49
2023-06-25T11:34:59.707Z,38.08
2023-06-25T11:35:59.617Z,41.24
2023-06-25T11:36:59.640Z,39.95
2023-06-25T11:37:59.623Z,39.76
2023-06-25T11:38:59.662Z,39.34
2023-06-25T11:39:59.585Z,41.41
2023-06-25T11:40:59.610Z,39.64
2023-06-25T11:41:59.526Z,38.75
2023-06-25T11:42:59.543Z,38.34
2023-06-25T11:43:59.529Z,39.23
2023-06-25T11:44:59.526Z,38.02
2023-06-25T11:45:59.551Z,37.53
2023-06-25T11:46:59.492Z,37.63
2023-06-25T11:47:59.516Z,39.40
2023-06-25T11:48:59.495Z,37.51
2023-06-25T11:49:59.469Z,39.97
2023-06-25T11:50:59.452Z,38.20
2023-06-25T11:51:59.471Z,36.72
2023-06-25T11:52:59.467Z,37.10
2023-06-25T11:53:59.429Z,38.48
2023-06-25T11:54:59.435Z,37.59
2023-06-25T11:55:59.473Z,37.20
2023-06-25T11:56:59.395Z,36.99
2023-06-25T11:57:59.388Z,39.25
2023-06-25T11:58:59.376Z,38.17
2023-06-25T11:59:59.362Z,37.18
2023-06-25T12:00:59.352Z,36.30
2023-06-25T12:01:59.416Z,36.67
2023-06-25T12:02:59.362Z,36.47
2023-06-25T12:03:59.428Z,35.59
2023-06-25T12:04:59.312Z,36.28
2023-06-25T12:06:00.005Z,37.34
2023-06-25T12:06:59.368Z,36.55
2023-06-25T12:07:59.284Z,37.63
2023-06-25T12:08:59.282Z,37.24
2023-06-25T12:09:59.241Z,35.36
2023-06-25T12:10:59.246Z,36.24
2023-06-25T12:11:59.243Z,35.26
2023-06-25T12:12:59.306Z,35.93
2023-06-25T12:13:59.212Z,35.34
2023-06-25T12:14:59.197Z,35.64
2023-06-25T12:15:59.180Z,35.44
2023-06-25T12:16:59.188Z,35.14
2023-06-25T12:17:59.172Z,35.24
2023-06-25T12:18:59.196Z,35.52
2023-06-25T12:19:59.155Z,35.13
2023-06-25T12:20:59.164Z,35.42
2023-06-25T12:21:59.110Z,35.82
2023-06-25T12:22:59.136Z,34.92
2023-06-25T12:23:59.097Z,36.78
2023-06-25T12:24:59.134Z,34.92
2023-06-25T12:25:59.105Z,33.84
2023-06-25T12:26:59.097Z,35.00
2023-06-25T12:27:59.056Z,34.90
2023-06-25T12:28:59.068Z,34.21
2023-06-25T12:29:59.037Z,34.59
2023-06-25T12:30:59.071Z,36.06
2023-06-25T12:31:59.121Z,33.12
2023-06-25T12:32:59.173Z,33.90
2023-06-25T12:33:59.000Z,32.04
2023-06-25T12:34:59.152Z,34.78
2023-06-25T12:35:59.096Z,32.43
2023-06-25T12:36:58.992Z,32.71
2023-06-25T12:37:58.961Z,35.16
2023-06-25T12:38:58.985Z,35.45
2023-06-25T12:39:58.955Z,35.16
2023-06-25T12:40:59.049Z,33.38
2023-06-25T12:41:58.921Z,33.09
2023-06-25T12:42:58.922Z,32.70
2023-06-25T12:43:58.904Z,31.71
2023-06-25T12:44:58.925Z,32.19
2023-06-25T12:45:58.924Z,33.26
2023-06-25T12:46:58.882Z,31.70
2023-06-25T12:47:58.893Z,31.60
2023-06-25T12:48:58.875Z,31.49
2023-06-25T12:49:58.850Z,32.17
2023-06-25T12:50:58.843Z,32.76
2023-06-25T12:51:58.838Z,32.17
2023-06-25T12:52:58.827Z,31.39
2023-06-25T12:53:58.795Z,31.88
2023-06-25T12:54:58.800Z,30.90
2023-06-25T12:55:58.786Z,30.59
2023-06-25T12:56:58.807Z,31.38
2023-06-25T12:57:58.763Z,33.04
2023-06-25T12:58:58.773Z,30.59
2023-06-25T12:59:58.737Z,30.49
2023-06-25T13:01:07.265Z,33.70
2023-06-25T13:01:58.766Z,32.63
2023-06-25T13:02:58.861Z,31.16
2023-06-25T13:03:58.771Z,29.79
2023-06-25T13:04:58.720Z,30.76
2023-06-25T13:05:58.688Z,29.49
2023-06-25T13:06:58.678Z,29.10
2023-06-25T13:07:58.666Z,32.62
2023-06-25T13:08:58.720Z,29.38
2023-06-25T13:09:58.652Z,29.96
2023-06-25T13:10:58.621Z,30.74
2023-06-25T13:11:58.621Z,30.16
2023-06-25T13:12:58.594Z,32.21
2023-06-25T13:13:58.600Z,30.63
2023-06-25T13:14:58.599Z,33.26
2023-06-25T13:15:58.587Z,30.93
2023-06-25T13:16:58.567Z,32.09
2023-06-25T13:17:58.596Z,32.87
2023-06-25T13:18:58.538Z,32.19
2023-06-25T13:19:58.536Z,28.88
2023-06-25T13:20:58.555Z,33.17
2023-06-25T13:21:58.537Z,32.40
2023-06-25T13:22:58.509Z,29.77
2023-06-25T13:23:58.518Z,30.74
2023-06-25T13:24:58.483Z,29.67
2023-06-25T13:25:58.476Z,29.07
2023-06-25T13:26:59.821Z,29.56
2023-06-25T13:27:58.485Z,27.70
2023-06-25T13:28:58.435Z,31.88
2023-06-25T13:29:58.444Z,31.20
2023-06-25T13:30:58.605Z,31.30
2023-06-25T13:31:58.421Z,28.28
2023-06-25T13:32:58.471Z,28.96
2023-06-25T13:33:58.406Z,28.65
2023-06-25T13:34:58.391Z,28.26
2023-06-25T13:35:58.387Z,28.05
2023-06-25T13:36:58.362Z,28.54
2023-06-25T13:37:58.375Z,26.98
2023-06-25T13:38:58.377Z,29.79
2023-06-25T13:39:58.355Z,28.34
2023-06-25T13:40:58.320Z,28.53
2023-06-25T13:41:58.323Z,28.15
2023-06-25T13:42:58.306Z,30.19
2023-06-25T13:43:58.346Z,29.22
2023-06-25T13:44:58.303Z,27.08
2023-06-25T13:45:58.336Z,29.21
2023-06-25T13:46:58.350Z,27.06
2023-06-25T13:47:58.300Z,26.68
2023-06-25T13:48:58.261Z,26.68
2023-06-25T13:49:58.259Z,29.39
2023-06-25T13:50:59.188Z,30.46
2023-06-25T13:51:58.247Z,27.83
2023-06-25T13:52:58.251Z,29.86
2023-06-25T13:53:58.208Z,29.66
2023-06-25T13:54:58.184Z,27.14
2023-06-25T13:55:58.250Z,28.11
2023-06-25T13:56:58.184Z,27.92
2023-06-25T13:57:58.181Z,25.86
2023-06-25T13:58:58.245Z,29.65
2023-06-25T13:59:58.150Z,28.58
2023-06-25T14:00:58.157Z,28.49
2023-06-25T14:01:58.133Z,27.03
2023-06-25T14:03:58.214Z,29.83
2023-06-25T14:04:58.120Z,27.39
2023-06-25T14:05:58.088Z,26.22
2023-06-25T14:06:58.148Z,26.01
2023-06-25T14:07:58.085Z,26.79
2023-06-25T14:08:58.073Z,28.33
2023-06-25T14:09:58.070Z,25.90
2023-06-25T14:10:58.069Z,26.28
2023-06-25T14:11:58.039Z,26.86
2023-06-25T14:12:58.011Z,26.46
2023-06-25T14:13:58.096Z,26.07
2023-06-25T14:14:58.020Z,28.29
2023-06-25T14:16:10.444Z,24.32
2023-06-25T14:16:58.007Z,27.40
2023-06-25T14:17:58.075Z,27.70
2023-06-25T14:18:57.989Z,27.78
2023-06-25T14:19:57.980Z,28.07
2023-06-25T14:20:57.971Z,26.32
2023-06-25T14:21:57.955Z,26.31
2023-06-25T14:22:57.956Z,26.31
2023-06-25T14:23:57.976Z,26.21
2023-06-25T14:24:57.903Z,25.15
2023-06-25T14:25:57.921Z,27.19
2023-06-25T14:26:57.924Z,26.31
2023-06-25T14:27:57.916Z,26.78
2023-06-25T14:29:10.317Z,26.59
2023-06-25T14:29:57.904Z,26.39
2023-06-25T14:30:57.859Z,27.62
2023-06-25T14:31:57.922Z,26.08
2023-06-25T14:32:57.905Z,25.21
2023-06-25T14:33:57.838Z,24.14
2023-06-25T14:34:57.816Z,25.39
2023-06-25T14:35:57.868Z,26.07
2023-06-25T14:36:57.783Z,25.96
2023-06-25T14:37:57.791Z,26.06
2023-06-25T14:38:57.797Z,25.18
2023-06-25T14:39:57.795Z,25.37
2023-06-25T14:40:57.746Z,24.10
2023-06-25T14:41:57.825Z,25.26
2023-06-25T14:42:57.733Z,25.26
2023-06-25T14:43:57.810Z,24.49
2023-06-25T14:44:57.729Z,23.81
2023-06-25T14:45:57.761Z,24.19
2023-06-25T14:46:57.717Z,23.61
2023-06-25T14:47:57.862Z,24.38
2023-06-25T14:48:57.695Z,24.57
2023-06-25T14:49:57.694Z,23.80
2023-06-25T14:50:57.723Z,22.66
2023-06-25T14:51:57.690Z,24.29
2023-06-25T14:52:57.638Z,24.21
2023-06-25T14:53:57.719Z,23.63
2023-06-25T14:54:57.639Z,23.55
2023-06-25T14:55:57.637Z,24.61
2023-06-25T14:56:57.660Z,23.17
2023-06-25T14:57:57.622Z,24.62
2023-06-25T14:58:57.739Z,23.86
2023-06-25T14:59:57.586Z,24.73
2023-06-25T15:00:57.575Z,24.35
2023-06-25T15:01:57.761Z,24.26
2023-06-25T15:02:57.664Z,24.74
2023-06-25T15:03:57.731Z,24.35
2023-06-25T15:04:57.627Z,24.66
2023-06-25T15:06:08.438Z,23.32
2023-06-25T15:06:57.543Z,25.15
2023-06-25T15:07:57.545Z,25.26
2023-06-25T15:08:57.509Z,26.14
2023-06-25T15:09:57.496Z,26.14
2023-06-25T15:10:57.501Z,25.55
2023-06-25T15:11:57.472Z,26.32
2023-06-25T15:12:57.488Z,26.42
2023-06-25T15:13:57.651Z,24.39
2023-06-25T15:14:57.465Z,23.81
2023-06-25T15:15:57.447Z,25.07
2023-06-25T15:16:57.418Z,24.21
2023-06-25T15:17:57.449Z,24.88
2023-06-25T15:18:57.452Z,23.54
2023-06-25T15:19:57.442Z,24.03
2023-06-25T15:20:57.384Z,24.82
2023-06-25T15:21:57.393Z,25.59
2023-06-25T15:22:57.359Z,24.23
2023-06-25T15:23:57.407Z,26.07
2023-06-25T15:24:57.379Z,25.01
2023-06-25T15:25:58.253Z,25.98
2023-06-25T15:26:57.376Z,26.28
2023-06-25T15:27:57.334Z,25.70
2023-06-25T15:28:57.308Z,24.24
2023-06-25T15:29:57.322Z,24.73
2023-06-25T15:30:57.321Z,24.15
2023-06-25T15:31:57.366Z,24.93
2023-06-25T15:32:57.322Z,24.06
2023-06-25T15:33:57.275Z,24.45
2023-06-25T15:34:57.246Z,23.69
2023-06-25T15:35:57.258Z,24.85
2023-06-25T15:36:57.268Z,24.76
2023-06-25T15:37:57.253Z,24.77
2023-06-25T15:38:57.226Z,25.15
2023-06-25T15:39:57.261Z,26.61
2023-06-25T15:40:57.235Z,26.14
2023-06-25T15:41:57.224Z,25.26
2023-06-25T15:42:57.187Z,23.33
2023-06-25T15:43:57.180Z,24.79
2023-06-25T15:44:57.186Z,24.89
2023-06-25T15:45:57.218Z,24.30
2023-06-25T15:46:57.148Z,25.76
2023-06-25T15:47:57.197Z,24.51
2023-06-25T15:48:57.151Z,24.32
2023-06-25T15:49:57.107Z,24.72
2023-06-25T15:50:57.147Z,26.18
2023-06-25T15:51:57.104Z,27.34
2023-06-25T15:52:57.091Z,26.18
2023-06-25T15:53:57.096Z,25.49
2023-06-25T15:54:57.048Z,25.38
2023-06-25T15:55:57.046Z,25.87
2023-06-25T15:56:57.068Z,24.99
2023-06-25T15:57:57.042Z,25.78
2023-06-25T15:58:57.020Z,26.07
2023-06-25T15:59:57.015Z,26.07
2023-06-25T16:00:57.013Z,26.75
2023-06-25T16:01:57.026Z,26.17
2023-06-25T16:02:57.140Z,26.07
2023-06-25T16:03:57.093Z,25.48
2023-06-25T16:04:56.983Z,25.78
2023-06-25T16:05:56.981Z,25.19
2023-06-25T16:06:56.973Z,27.14
2023-06-25T16:07:56.981Z,26.57
2023-06-25T16:08:56.913Z,27.93
2023-06-25T16:09:56.957Z,27.93
2023-06-25T16:10:56.925Z,25.89
2023-06-25T16:11:56.924Z,25.79
2023-06-25T16:12:56.862Z,26.68
2023-06-25T16:13:56.900Z,27.06
2023-06-25T16:14:56.851Z,27.84
2023-06-25T16:15:56.847Z,27.16
2023-06-25T16:16:56.845Z,27.06
2023-06-25T16:17:56.857Z,27.75
2023-06-25T16:19:13.732Z,28.82
2023-06-25T16:20:11.077Z,27.86
2023-06-25T16:20:56.849Z,29.13
2023-06-25T16:21:56.779Z,28.44
2023-06-25T16:22:56.772Z,28.83
2023-06-25T16:23:56.770Z,26.51
2023-06-25T16:24:56.777Z,28.07
2023-06-25T16:25:56.747Z,27.29
2023-06-25T16:26:56.829Z,29.14
2023-06-25T16:27:56.732Z,28.28
2023-06-25T16:28:56.707Z,27.89
2023-06-25T16:29:56.738Z,28.67
2023-06-25T16:30:56.739Z,28.77
2023-06-25T16:31:56.723Z,29.15
2023-06-25T16:32:56.801Z,29.54
2023-06-25T16:33:56.687Z,28.18
2023-06-25T16:34:56.677Z,28.39
2023-06-25T16:35:56.651Z,29.46
2023-06-25T16:36:56.661Z,29.36
2023-06-25T16:37:56.618Z,28.29
2023-06-25T16:38:56.607Z,29.07
2023-06-25T16:39:56.744Z,28.68
2023-06-25T16:40:56.613Z,28.19
2023-06-25T16:41:56.610Z,28.58
2023-06-25T16:42:56.585Z,28.99
2023-06-25T16:43:56.575Z,29.67
2023-06-25T16:44:56.554Z,27.33
2023-06-25T16:45:56.587Z,29.67
2023-06-25T16:46:56.664Z,28.97
2023-06-25T16:47:56.590Z,29.18
2023-06-25T16:48:56.509Z,29.38
2023-06-25T16:49:56.518Z,29.08
2023-06-25T16:50:56.478Z,29.57
2023-06-25T16:51:56.494Z,29.08
2023-06-25T16:52:56.489Z,28.88
2023-06-25T16:53:56.489Z,28.97
2023-06-25T16:54:56.452Z,28.08
2023-06-25T16:55:56.473Z,28.96
2023-06-25T16:56:56.424Z,27.68
2023-06-25T16:57:56.452Z,28.07
2023-06-25T16:58:56.415Z,28.45
2023-06-25T16:59:56.497Z,28.44
2023-06-25T17:00:56.391Z,28.93
2023-06-25T17:01:56.409Z,27.95
2023-06-25T17:02:56.465Z,28.16
2023-06-25T17:03:56.439Z,29.63
2023-06-25T17:04:56.380Z,28.94
2023-06-25T17:05:56.363Z,27.11
2023-06-25T17:06:56.332Z,28.65
2023-06-25T17:07:56.338Z,30.02
2023-06-25T17:08:56.300Z,27.66
2023-06-25T17:09:56.297Z,27.86
2023-06-25T17:10:56.316Z,27.56
2023-06-25T17:11:56.336Z,27.56
2023-06-25T17:12:56.258Z,28.25
2023-06-25T17:13:56.266Z,27.28
2023-06-25T17:14:56.275Z,27.08
2023-06-25T17:15:56.233Z,26.79
2023-06-25T17:16:56.240Z,27.18
2023-06-25T17:17:57.835Z,28.34
2023-06-25T17:18:56.211Z,28.65
2023-06-25T17:19:56.179Z,28.94
2023-06-25T17:20:56.194Z,28.26
2023-06-25T17:21:56.157Z,26.61
2023-06-25T17:22:56.197Z,28.36
2023-06-25T17:23:56.206Z,28.07